Condon, Montana
Current Conditions -  °F | °C
As of 7:22 AM on Saturday 20 Dec 2014 (Local Time) from KMSO Reporting Station
Moderate Fog Moderate Fog  
Wind Chill: 26°   Ceiling: 200
Heat Index: 26°   Visibility: 0.25mi
Dew Point: 24°   Wind: 0mph
Humidity: 92%   Direction: NA
Pressure: 29.98"   Gusts: NA
Location:  47.53°N, 113.71°W
Report Text: KMSO 201422Z 00000KT 1/4SM FZFG VV002 M03/M04 A2998 RMK AO2 I1000 T10331044 $
Loading
Personal Weather Stations






























Interactive Weather Map New forecast layout! Learn more

10-Day Weather Forecast

Advertisements
Track Severe Weather on mobile